sensor_id;sensor_type;location;lat;lon;timestamp;temperature;humidity
37242;DHT22;23135;51.078;12.108;2022-10-23T00:01:37;11.10;99.90
37242;DHT22;23135;51.078;12.108;2022-10-23T00:04:10;11.10;99.90
37242;DHT22;23135;51.078;12.108;2022-10-23T00:06:36;11.00;99.90
37242;DHT22;23135;51.078;12.108;2022-10-23T00:09:03;11.00;99.90
37242;DHT22;23135;51.078;12.108;2022-10-23T00:11:30;11.00;99.90
37242;DHT22;23135;51.078;12.108;2022-10-23T00:13:58;10.90;99.90
37242;DHT22;23135;51.078;12.108;2022-10-23T00:16:25;10.90;99.90
37242;DHT22;23135;51.078;12.108;2022-10-23T00:18:50;10.90;99.90
37242;DHT22;23135;51.078;12.108;2022-10-23T00:21:16;10.90;99.90
37242;DHT22;23135;51.078;12.108;2022-10-23T00:23:43;10.90;99.90
37242;DHT22;23135;51.078;12.108;2022-10-23T00:26:09;10.90;99.90
37242;DHT22;23135;51.078;12.108;2022-10-23T00:28:36;10.90;99.90
37242;DHT22;23135;51.078;12.108;2022-10-23T00:31:03;10.80;99.90
37242;DHT22;23135;51.078;12.108;2022-10-23T00:33:30;10.80;99.90
37242;DHT22;23135;51.078;12.108;2022-10-23T00:35:56;10.80;99.90
37242;DHT22;23135;51.078;12.108;2022-10-23T00:38:22;10.90;99.90
37242;DHT22;23135;51.078;12.108;2022-10-23T00:40:47;10.80;99.90
37242;DHT22;23135;51.078;12.108;2022-10-23T00:43:19;10.90;99.90
37242;DHT22;23135;51.078;12.108;2022-10-23T00:45:45;10.80;99.90
37242;DHT22;23135;51.078;12.108;2022-10-23T00:48:11;10.80;99.90
37242;DHT22;23135;51.078;12.108;2022-10-23T00:50:37;10.80;99.90
37242;DHT22;23135;51.078;12.108;2022-10-23T00:53:04;10.80;99.90
37242;DHT22;23135;51.078;12.108;2022-10-23T00:55:31;10.90;99.90
37242;DHT22;23135;51.078;12.108;2022-10-23T00:57:58;10.90;99.90
37242;DHT22;23135;51.078;12.108;2022-10-23T01:00:38;11.00;99.90
37242;DHT22;23135;51.078;12.108;2022-10-23T01:03:04;10.90;99.90
37242;DHT22;23135;51.078;12.108;2022-10-23T01:05:36;10.90;99.90
37242;DHT22;23135;51.078;12.108;2022-10-23T01:08:11;10.90;99.90
37242;DHT22;23135;51.078;12.108;2022-10-23T01:10:47;10.90;99.90
37242;DHT22;23135;51.078;12.108;2022-10-23T01:13:32;10.90;99.90
37242;DHT22;23135;51.078;12.108;2022-10-23T01:16:21;10.90;99.90
37242;DHT22;23135;51.078;12.108;2022-10-23T01:19:01;10.80;99.90
37242;DHT22;23135;51.078;12.108;2022-10-23T01:21:54;10.80;99.90
37242;DHT22;23135;51.078;12.108;2022-10-23T01:24:35;10.80;99.90
37242;DHT22;23135;51.078;12.108;2022-10-23T01:29:51;10.70;99.90
37242;DHT22;23135;51.078;12.108;2022-10-23T01:32:28;10.80;99.90
37242;DHT22;23135;51.078;12.108;2022-10-23T01:35:13;10.80;99.90
37242;DHT22;23135;51.078;12.108;2022-10-23T01:37:41;10.80;99.90
37242;DHT22;23135;51.078;12.108;2022-10-23T01:40:17;10.80;99.90
37242;DHT22;23135;51.078;12.108;2022-10-23T01:42:51;10.80;99.90
37242;DHT22;23135;51.078;12.108;2022-10-23T01:45:23;10.80;99.90
37242;DHT22;23135;51.078;12.108;2022-10-23T01:47:51;10.80;99.90
37242;DHT22;23135;51.078;12.108;2022-10-23T01:50:19;10.80;99.90
37242;DHT22;23135;51.078;12.108;2022-10-23T01:52:45;10.70;99.90
37242;DHT22;23135;51.078;12.108;2022-10-23T01:55:12;10.70;99.90
37242;DHT22;23135;51.078;12.108;2022-10-23T01:57:39;10.70;99.90
37242;DHT22;23135;51.078;12.108;2022-10-23T02:00:11;10.60;99.90
37242;DHT22;23135;51.078;12.108;2022-10-23T02:02:38;10.60;99.90
37242;DHT22;23135;51.078;12.108;2022-10-23T02:05:16;10.60;99.90
37242;DHT22;23135;51.078;12.108;2022-10-23T02:07:43;10.50;99.90
37242;DHT22;23135;51.078;12.108;2022-10-23T02:10:09;10.40;99.90
37242;DHT22;23135;51.078;12.108;2022-10-23T02:12:45;10.40;99.90
37242;DHT22;23135;51.078;12.108;2022-10-23T02:15:36;10.30;99.90
37242;DHT22;23135;51.078;12.108;2022-10-23T02:20:41;10.30;99.90
37242;DHT22;23135;51.078;12.108;2022-10-23T02:25:53;10.30;99.90
37242;DHT22;23135;51.078;12.108;2022-10-23T02:28:24;10.20;99.90
37242;DHT22;23135;51.078;12.108;2022-10-23T02:30:52;10.20;99.90
37242;DHT22;23135;51.078;12.108;2022-10-23T02:33:20;10.20;99.90
37242;DHT22;23135;51.078;12.108;2022-10-23T02:35:47;10.10;99.90
37242;DHT22;23135;51.078;12.108;2022-10-23T02:40:56;10.20;99.90
37242;DHT22;23135;51.078;12.108;2022-10-23T02:43:33;10.20;99.90
37242;DHT22;23135;51.078;12.108;2022-10-23T02:46:20;10.10;99.90
37242;DHT22;23135;51.078;12.108;2022-10-23T02:48:54;10.10;99.90
37242;DHT22;23135;51.078;12.108;2022-10-23T02:51:30;10.10;99.90
37242;DHT22;23135;51.078;12.108;2022-10-23T02:54:10;10.10;99.90
37242;DHT22;23135;51.078;12.108;2022-10-23T02:56:44;10.10;99.90
37242;DHT22;23135;51.078;12.108;2022-10-23T02:59:31;10.10;99.90
37242;DHT22;23135;51.078;12.108;2022-10-23T03:02:05;10.10;99.90
37242;DHT22;23135;51.078;12.108;2022-10-23T03:04:32;10.20;99.90
37242;DHT22;23135;51.078;12.108;2022-10-23T03:06:59;10.20;99.90
37242;DHT22;23135;51.078;12.108;2022-10-23T03:09:25;10.10;99.90
37242;DHT22;23135;51.078;12.108;2022-10-23T03:11:51;10.20;99.90
37242;DHT22;23135;51.078;12.108;2022-10-23T03:14:16;10.20;99.90
37242;DHT22;23135;51.078;12.108;2022-10-23T03:16:42;10.20;99.90
37242;DHT22;23135;51.078;12.108;2022-10-23T03:19:08;10.20;99.90
37242;DHT22;23135;51.078;12.108;2022-10-23T03:21:33;10.20;99.90
37242;DHT22;23135;51.078;12.108;2022-10-23T03:23:59;10.20;99.90
37242;DHT22;23135;51.078;12.108;2022-10-23T03:26:25;10.20;99.90
37242;DHT22;23135;51.078;12.108;2022-10-23T03:28:50;10.20;99.90
37242;DHT22;23135;51.078;12.108;2022-10-23T03:31:16;10.30;99.90
37242;DHT22;23135;51.078;12.108;2022-10-23T03:33:41;10.30;99.90
37242;DHT22;23135;51.078;12.108;2022-10-23T03:36:07;10.30;99.90
37242;DHT22;23135;51.078;12.108;2022-10-23T03:38:33;10.30;99.90
37242;DHT22;23135;51.078;12.108;2022-10-23T03:40:59;10.30;99.90
37242;DHT22;23135;51.078;12.108;2022-10-23T03:43:24;10.30;99.90
37242;DHT22;23135;51.078;12.108;2022-10-23T03:45:50;10.40;99.90
37242;DHT22;23135;51.078;12.108;2022-10-23T03:48:16;10.40;99.90
37242;DHT22;23135;51.078;12.108;2022-10-23T03:50:42;10.40;99.90
37242;DHT22;23135;51.078;12.108;2022-10-23T03:53:07;10.40;99.90
37242;DHT22;23135;51.078;12.108;2022-10-23T03:55:33;10.30;99.90
37242;DHT22;23135;51.078;12.108;2022-10-23T03:57:58;10.30;99.90
37242;DHT22;23135;51.078;12.108;2022-10-23T04:00:24;10.20;99.90
37242;DHT22;23135;51.078;12.108;2022-10-23T04:02:50;10.20;99.90
37242;DHT22;23135;51.078;12.108;2022-10-23T04:05:15;10.20;99.90
37242;DHT22;23135;51.078;12.108;2022-10-23T04:07:41;10.20;99.90
37242;DHT22;23135;51.078;12.108;2022-10-23T04:10:07;10.10;99.90
37242;DHT22;23135;51.078;12.108;2022-10-23T04:12:33;10.10;99.90
37242;DHT22;23135;51.078;12.108;2022-10-23T04:14:59;10.10;99.90
37242;DHT22;23135;51.078;12.108;2022-10-23T04:17:24;10.10;99.90
37242;DHT22;23135;51.078;12.108;2022-10-23T04:19:50;10.10;99.90
37242;DHT22;23135;51.078;12.108;2022-10-23T04:22:16;10.20;99.90
37242;DHT22;23135;51.078;12.108;2022-10-23T04:24:41;10.20;99.90
37242;DHT22;23135;51.078;12.108;2022-10-23T04:27:11;10.20;99.90
37242;DHT22;23135;51.078;12.108;2022-10-23T04:29:37;10.30;99.90
37242;DHT22;23135;51.078;12.108;2022-10-23T04:32:02;10.30;99.90
37242;DHT22;23135;51.078;12.108;2022-10-23T04:34:28;10.30;99.90
37242;DHT22;23135;51.078;12.108;2022-10-23T04:36:53;10.20;99.90
37242;DHT22;23135;51.078;12.108;2022-10-23T04:39:19;10.20;99.90
37242;DHT22;23135;51.078;12.108;2022-10-23T04:41:45;10.20;99.90
37242;DHT22;23135;51.078;12.108;2022-10-23T04:44:11;10.30;99.90
37242;DHT22;23135;51.078;12.108;2022-10-23T04:46:36;10.50;99.90
37242;DHT22;23135;51.078;12.108;2022-10-23T04:49:02;10.50;99.90
37242;DHT22;23135;51.078;12.108;2022-10-23T04:51:28;10.50;99.90
37242;DHT22;23135;51.078;12.108;2022-10-23T04:53:54;10.60;99.90
37242;DHT22;23135;51.078;12.108;2022-10-23T04:56:19;10.60;99.90
37242;DHT22;23135;51.078;12.108;2022-10-23T04:58:45;10.50;99.90
37242;DHT22;23135;51.078;12.108;2022-10-23T05:01:10;10.40;99.90
37242;DHT22;23135;51.078;12.108;2022-10-23T05:03:37;10.30;99.90
37242;DHT22;23135;51.078;12.108;2022-10-23T05:06:03;10.30;99.90
37242;DHT22;23135;51.078;12.108;2022-10-23T05:08:29;10.30;99.90
37242;DHT22;23135;51.078;12.108;2022-10-23T05:10:54;10.40;99.90
37242;DHT22;23135;51.078;12.108;2022-10-23T05:13:20;10.50;99.90
37242;DHT22;23135;51.078;12.108;2022-10-23T05:15:47;10.50;99.90
37242;DHT22;23135;51.078;12.108;2022-10-23T05:18:21;10.60;99.90
37242;DHT22;23135;51.078;12.108;2022-10-23T05:20:50;10.60;99.90
37242;DHT22;23135;51.078;12.108;2022-10-23T05:23:20;10.60;99.90
37242;DHT22;23135;51.078;12.108;2022-10-23T05:25:47;10.50;99.90
37242;DHT22;23135;51.078;12.108;2022-10-23T05:28:12;10.40;99.90
37242;DHT22;23135;51.078;12.108;2022-10-23T05:30:38;10.30;99.90
37242;DHT22;23135;51.078;12.108;2022-10-23T05:33:04;10.30;99.90
37242;DHT22;23135;51.078;12.108;2022-10-23T05:35:30;10.20;99.90
37242;DHT22;23135;51.078;12.108;2022-10-23T05:37:56;10.10;99.90
37242;DHT22;23135;51.078;12.108;2022-10-23T05:40:23;10.10;99.90
37242;DHT22;23135;51.078;12.108;2022-10-23T05:42:49;10.10;99.90
37242;DHT22;23135;51.078;12.108;2022-10-23T05:45:15;10.10;99.90
37242;DHT22;23135;51.078;12.108;2022-10-23T05:47:43;10.10;99.90
37242;DHT22;23135;51.078;12.108;2022-10-23T05:50:08;10.10;99.90
37242;DHT22;23135;51.078;12.108;2022-10-23T05:52:34;10.20;99.90
37242;DHT22;23135;51.078;12.108;2022-10-23T05:55:00;10.20;99.90
37242;DHT22;23135;51.078;12.108;2022-10-23T05:57:25;10.20;99.90
37242;DHT22;23135;51.078;12.108;2022-10-23T05:59:51;10.20;99.90
37242;DHT22;23135;51.078;12.108;2022-10-23T06:02:17;10.10;99.90
37242;DHT22;23135;51.078;12.108;2022-10-23T06:04:42;10.10;99.90
37242;DHT22;23135;51.078;12.108;2022-10-23T06:07:08;10.10;99.90
37242;DHT22;23135;51.078;12.108;2022-10-23T06:09:33;10.20;99.90
37242;DHT22;23135;51.078;12.108;2022-10-23T06:12:00;10.20;99.90
37242;DHT22;23135;51.078;12.108;2022-10-23T06:14:27;10.20;99.90
37242;DHT22;23135;51.078;12.108;2022-10-23T06:16:52;10.20;99.90
37242;DHT22;23135;51.078;12.108;2022-10-23T06:19:18;10.30;99.90
37242;DHT22;23135;51.078;12.108;2022-10-23T06:21:43;10.30;99.90
37242;DHT22;23135;51.078;12.108;2022-10-23T06:24:10;10.40;99.90
37242;DHT22;23135;51.078;12.108;2022-10-23T06:26:35;10.50;99.90
37242;DHT22;23135;51.078;12.108;2022-10-23T06:29:01;10.60;99.90
37242;DHT22;23135;51.078;12.108;2022-10-23T06:31:27;10.60;99.90
37242;DHT22;23135;51.078;12.108;2022-10-23T06:33:54;10.60;99.90
37242;DHT22;23135;51.078;12.108;2022-10-23T06:36:21;10.70;99.90
37242;DHT22;23135;51.078;12.108;2022-10-23T06:38:46;10.80;99.90
37242;DHT22;23135;51.078;12.108;2022-10-23T06:41:16;10.80;99.90
37242;DHT22;23135;51.078;12.108;2022-10-23T06:43:41;10.90;99.90
37242;DHT22;23135;51.078;12.108;2022-10-23T06:46:07;10.90;99.90
37242;DHT22;23135;51.078;12.108;2022-10-23T06:48:34;10.90;99.90
37242;DHT22;23135;51.078;12.108;2022-10-23T06:51:05;11.00;99.90
37242;DHT22;23135;51.078;12.108;2022-10-23T06:53:31;11.10;99.90
37242;DHT22;23135;51.078;12.108;2022-10-23T06:56:01;11.10;99.90
37242;DHT22;23135;51.078;12.108;2022-10-23T06:58:27;11.20;99.90
37242;DHT22;23135;51.078;12.108;2022-10-23T07:00:53;11.30;99.90
37242;DHT22;23135;51.078;12.108;2022-10-23T07:03:18;11.30;99.90
37242;DHT22;23135;51.078;12.108;2022-10-23T07:05:44;11.40;99.90
37242;DHT22;23135;51.078;12.108;2022-10-23T07:08:12;11.40;99.90
37242;DHT22;23135;51.078;12.108;2022-10-23T07:10:38;11.40;99.90
37242;DHT22;23135;51.078;12.108;2022-10-23T07:13:07;11.50;99.90
37242;DHT22;23135;51.078;12.108;2022-10-23T07:15:33;11.60;99.90
37242;DHT22;23135;51.078;12.108;2022-10-23T07:17:59;11.60;99.90
37242;DHT22;23135;51.078;12.108;2022-10-23T07:20:25;11.60;99.90
37242;DHT22;23135;51.078;12.108;2022-10-23T07:22:55;11.60;99.90
37242;DHT22;23135;51.078;12.108;2022-10-23T07:25:22;11.70;99.90
37242;DHT22;23135;51.078;12.108;2022-10-23T07:27:48;11.80;99.90
37242;DHT22;23135;51.078;12.108;2022-10-23T07:30:14;11.90;99.90
37242;DHT22;23135;51.078;12.108;2022-10-23T07:32:40;12.00;99.90
37242;DHT22;23135;51.078;12.108;2022-10-23T07:35:06;12.10;99.90
37242;DHT22;23135;51.078;12.108;2022-10-23T07:37:32;12.30;99.90
37242;DHT22;23135;51.078;12.108;2022-10-23T07:39:58;12.40;99.90
37242;DHT22;23135;51.078;12.108;2022-10-23T07:42:23;12.50;99.90
37242;DHT22;23135;51.078;12.108;2022-10-23T07:44:49;12.60;99.90
37242;DHT22;23135;51.078;12.108;2022-10-23T07:47:15;12.70;99.90
37242;DHT22;23135;51.078;12.108;2022-10-23T07:49:40;12.80;99.90
37242;DHT22;23135;51.078;12.108;2022-10-23T07:52:06;12.90;99.90
37242;DHT22;23135;51.078;12.108;2022-10-23T07:54:32;13.10;99.90
37242;DHT22;23135;51.078;12.108;2022-10-23T07:56:58;13.20;99.90
37242;DHT22;23135;51.078;12.108;2022-10-23T07:59:24;13.40;99.90
37242;DHT22;23135;51.078;12.108;2022-10-23T08:01:50;13.50;99.90
37242;DHT22;23135;51.078;12.108;2022-10-23T08:04:15;13.50;99.90
37242;DHT22;23135;51.078;12.108;2022-10-23T08:06:41;13.50;99.90
37242;DHT22;23135;51.078;12.108;2022-10-23T08:09:07;13.50;99.90
37242;DHT22;23135;51.078;12.108;2022-10-23T08:11:33;13.40;99.90
37242;DHT22;23135;51.078;12.108;2022-10-23T08:14:01;13.40;99.90
37242;DHT22;23135;51.078;12.108;2022-10-23T08:16:30;13.40;99.90
37242;DHT22;23135;51.078;12.108;2022-10-23T08:18:56;13.40;99.90
37242;DHT22;23135;51.078;12.108;2022-10-23T08:21:22;13.50;99.90
37242;DHT22;23135;51.078;12.108;2022-10-23T08:23:48;13.50;99.90
37242;DHT22;23135;51.078;12.108;2022-10-23T08:26:14;13.60;99.90
37242;DHT22;23135;51.078;12.108;2022-10-23T08:28:40;13.80;99.90
37242;DHT22;23135;51.078;12.108;2022-10-23T08:31:11;13.90;99.90
37242;DHT22;23135;51.078;12.108;2022-10-23T08:33:37;14.10;99.90
37242;DHT22;23135;51.078;12.108;2022-10-23T08:36:04;14.30;99.90
37242;DHT22;23135;51.078;12.108;2022-10-23T08:38:29;14.40;99.90
37242;DHT22;23135;51.078;12.108;2022-10-23T08:40:55;14.50;99.90
37242;DHT22;23135;51.078;12.108;2022-10-23T08:43:35;14.50;99.90
37242;DHT22;23135;51.078;12.108;2022-10-23T08:46:08;14.60;99.90
37242;DHT22;23135;51.078;12.108;2022-10-23T08:48:42;14.60;99.90
37242;DHT22;23135;51.078;12.108;2022-10-23T08:51:30;14.60;99.90
37242;DHT22;23135;51.078;12.108;2022-10-23T08:56:48;14.80;99.90
37242;DHT22;23135;51.078;12.108;2022-10-23T08:59:48;15.00;99.90
37242;DHT22;23135;51.078;12.108;2022-10-23T09:02:23;15.00;99.90
37242;DHT22;23135;51.078;12.108;2022-10-23T09:04:52;15.00;99.90
37242;DHT22;23135;51.078;12.108;2022-10-23T09:10:19;14.90;99.90
37242;DHT22;23135;51.078;12.108;2022-10-23T09:12:48;14.80;99.90
37242;DHT22;23135;51.078;12.108;2022-10-23T09:15:37;14.90;99.90
37242;DHT22;23135;51.078;12.108;2022-10-23T09:18:12;15.00;99.90
37242;DHT22;23135;51.078;12.108;2022-10-23T09:20:39;15.00;99.90
37242;DHT22;23135;51.078;12.108;2022-10-23T09:23:16;15.10;99.90
37242;DHT22;23135;51.078;12.108;2022-10-23T09:25:43;15.20;99.90
37242;DHT22;23135;51.078;12.108;2022-10-23T09:28:20;15.20;99.90
37242;DHT22;23135;51.078;12.108;2022-10-23T09:30:46;15.20;99.90
37242;DHT22;23135;51.078;12.108;2022-10-23T09:33:24;15.30;99.90
37242;DHT22;23135;51.078;12.108;2022-10-23T09:35:58;15.40;99.90
37242;DHT22;23135;51.078;12.108;2022-10-23T09:40:50;15.50;99.90
37242;DHT22;23135;51.078;12.108;2022-10-23T09:43:17;15.50;99.90
37242;DHT22;23135;51.078;12.108;2022-10-23T09:45:59;15.50;99.90
37242;DHT22;23135;51.078;12.108;2022-10-23T09:48:25;15.50;99.90
37242;DHT22;23135;51.078;12.108;2022-10-23T09:50:57;15.60;99.90
37242;DHT22;23135;51.078;12.108;2022-10-23T09:55:53;15.70;99.90
37242;DHT22;23135;51.078;12.108;2022-10-23T09:58:35;15.70;99.90
37242;DHT22;23135;51.078;12.108;2022-10-23T10:01:02;15.90;99.90
37242;DHT22;23135;51.078;12.108;2022-10-23T10:03:28;16.00;99.90
37242;DHT22;23135;51.078;12.108;2022-10-23T10:05:57;16.00;99.90
37242;DHT22;23135;51.078;12.108;2022-10-23T10:08:47;16.10;99.90
37242;DHT22;23135;51.078;12.108;2022-10-23T10:11:41;16.20;99.90
37242;DHT22;23135;51.078;12.108;2022-10-23T10:14:30;16.30;99.90
37242;DHT22;23135;51.078;12.108;2022-10-23T10:22:28;16.50;99.90
37242;DHT22;23135;51.078;12.108;2022-10-23T10:30:09;16.90;99.90
37242;DHT22;23135;51.078;12.108;2022-10-23T10:32:57;16.90;99.90
37242;DHT22;23135;51.078;12.108;2022-10-23T10:35:48;17.00;99.90
37242;DHT22;23135;51.078;12.108;2022-10-23T10:46:34;17.60;99.90
37242;DHT22;23135;51.078;12.108;2022-10-23T10:49:18;17.90;99.90
37242;DHT22;23135;51.078;12.108;2022-10-23T10:52:56;17.80;99.90
37242;DHT22;23135;51.078;12.108;2022-10-23T10:57:41;18.10;99.90
37242;DHT22;23135;51.078;12.108;2022-10-23T11:00:34;18.10;99.90
37242;DHT22;23135;51.078;12.108;2022-10-23T11:03:37;18.00;99.90
37242;DHT22;23135;51.078;12.108;2022-10-23T11:05:57;18.20;99.90
37242;DHT22;23135;51.078;12.108;2022-10-23T11:08:35;18.00;99.90
37242;DHT22;23135;51.078;12.108;2022-10-23T11:11:23;17.90;99.90
37242;DHT22;23135;51.078;12.108;2022-10-23T11:13:51;17.80;99.90
37242;DHT22;23135;51.078;12.108;2022-10-23T11:16:27;17.70;99.90
37242;DHT22;23135;51.078;12.108;2022-10-23T11:19:04;17.60;99.90
37242;DHT22;23135;51.078;12.108;2022-10-23T11:21:40;17.60;99.90
37242;DHT22;23135;51.078;12.108;2022-10-23T11:38:26;17.60;99.90
37242;DHT22;23135;51.078;12.108;2022-10-23T11:41:04;17.70;99.90
37242;DHT22;23135;51.078;12.108;2022-10-23T11:43:33;17.80;99.90
37242;DHT22;23135;51.078;12.108;2022-10-23T11:46:34;17.80;99.90
37242;DHT22;23135;51.078;12.108;2022-10-23T11:49:01;17.80;99.90
37242;DHT22;23135;51.078;12.108;2022-10-23T11:51:33;17.90;99.90
37242;DHT22;23135;51.078;12.108;2022-10-23T11:57:03;18.20;99.90
37242;DHT22;23135;51.078;12.108;2022-10-23T11:59:32;18.10;99.90
37242;DHT22;23135;51.078;12.108;2022-10-23T12:02:01;18.10;99.90
37242;DHT22;23135;51.078;12.108;2022-10-23T12:04:46;18.10;99.90
37242;DHT22;23135;51.078;12.108;2022-10-23T12:07:27;18.30;99.90
37242;DHT22;23135;51.078;12.108;2022-10-23T12:10:25;18.20;99.90
37242;DHT22;23135;51.078;12.108;2022-10-23T12:15:22;18.20;99.90
37242;DHT22;23135;51.078;12.108;2022-10-23T12:17:51;18.30;99.90
37242;DHT22;23135;51.078;12.108;2022-10-23T12:20:26;18.40;99.90
37242;DHT22;23135;51.078;12.108;2022-10-23T12:23:13;18.50;99.90
37242;DHT22;23135;51.078;12.108;2022-10-23T12:28:38;18.60;99.90
37242;DHT22;23135;51.078;12.108;2022-10-23T12:34:33;18.60;99.90
37242;DHT22;23135;51.078;12.108;2022-10-23T12:37:07;18.70;99.90
37242;DHT22;23135;51.078;12.108;2022-10-23T12:39:36;18.80;99.90
37242;DHT22;23135;51.078;12.108;2022-10-23T12:42:04;18.80;99.90
37242;DHT22;23135;51.078;12.108;2022-10-23T12:44:35;18.80;99.90
37242;DHT22;23135;51.078;12.108;2022-10-23T12:47:02;18.90;99.90
37242;DHT22;23135;51.078;12.108;2022-10-23T12:49:30;18.80;99.90
37242;DHT22;23135;51.078;12.108;2022-10-23T12:52:03;18.90;99.90
37242;DHT22;23135;51.078;12.108;2022-10-23T12:54:31;19.10;99.90
37242;DHT22;23135;51.078;12.108;2022-10-23T12:56:57;19.20;99.90
37242;DHT22;23135;51.078;12.108;2022-10-23T12:59:40;19.20;99.90
37242;DHT22;23135;51.078;12.108;2022-10-23T13:04:48;18.90;99.90
37242;DHT22;23135;51.078;12.108;2022-10-23T13:07:17;18.80;99.90
37242;DHT22;23135;51.078;12.108;2022-10-23T13:09:44;18.70;99.90
37242;DHT22;23135;51.078;12.108;2022-10-23T13:12:33;18.60;99.90
37242;DHT22;23135;51.078;12.108;2022-10-23T13:15:01;18.60;99.90
37242;DHT22;23135;51.078;12.108;2022-10-23T13:17:39;18.70;99.90
37242;DHT22;23135;51.078;12.108;2022-10-23T13:20:18;18.70;99.90
37242;DHT22;23135;51.078;12.108;2022-10-23T13:22:51;18.80;99.90
37242;DHT22;23135;51.078;12.108;2022-10-23T13:30:42;18.60;99.90
37242;DHT22;23135;51.078;12.108;2022-10-23T13:33:21;18.60;99.90
37242;DHT22;23135;51.078;12.108;2022-10-23T13:39:20;18.60;99.90
37242;DHT22;23135;51.078;12.108;2022-10-23T13:41:46;18.50;99.90
37242;DHT22;23135;51.078;12.108;2022-10-23T13:44:16;18.50;99.90
37242;DHT22;23135;51.078;12.108;2022-10-23T13:46:42;18.50;99.90
37242;DHT22;23135;51.078;12.108;2022-10-23T13:49:08;18.40;99.90
37242;DHT22;23135;51.078;12.108;2022-10-23T13:51:51;18.50;99.90
37242;DHT22;23135;51.078;12.108;2022-10-23T13:54:22;18.40;99.90
37242;DHT22;23135;51.078;12.108;2022-10-23T13:56:48;18.50;99.90
37242;DHT22;23135;51.078;12.108;2022-10-23T13:59:14;18.40;99.90
37242;DHT22;23135;51.078;12.108;2022-10-23T14:01:42;18.40;99.90
37242;DHT22;23135;51.078;12.108;2022-10-23T14:04:08;18.40;99.90
37242;DHT22;23135;51.078;12.108;2022-10-23T14:06:34;18.30;99.90
37242;DHT22;23135;51.078;12.108;2022-10-23T14:09:05;18.40;99.90
37242;DHT22;23135;51.078;12.108;2022-10-23T14:11:31;18.30;99.90
37242;DHT22;23135;51.078;12.108;2022-10-23T14:13:57;18.30;99.90
37242;DHT22;23135;51.078;12.108;2022-10-23T14:16:24;18.30;99.90
37242;DHT22;23135;51.078;12.108;2022-10-23T14:18:50;18.30;99.90
37242;DHT22;23135;51.078;12.108;2022-10-23T14:21:18;18.20;99.90
37242;DHT22;23135;51.078;12.108;2022-10-23T14:23:45;18.20;99.90
37242;DHT22;23135;51.078;12.108;2022-10-23T14:26:12;18.10;99.90
37242;DHT22;23135;51.078;12.108;2022-10-23T14:28:38;18.10;99.90
37242;DHT22;23135;51.078;12.108;2022-10-23T14:31:06;18.10;99.90
37242;DHT22;23135;51.078;12.108;2022-10-23T14:33:32;18.20;99.90
37242;DHT22;23135;51.078;12.108;2022-10-23T14:35:58;18.20;99.90
37242;DHT22;23135;51.078;12.108;2022-10-23T14:38:24;18.10;99.90
37242;DHT22;23135;51.078;12.108;2022-10-23T14:40:50;18.10;99.90
37242;DHT22;23135;51.078;12.108;2022-10-23T14:43:15;18.10;99.90
37242;DHT22;23135;51.078;12.108;2022-10-23T14:45:41;18.00;99.90
37242;DHT22;23135;51.078;12.108;2022-10-23T14:48:07;18.00;99.90
37242;DHT22;23135;51.078;12.108;2022-10-23T14:50:34;17.90;99.90
37242;DHT22;23135;51.078;12.108;2022-10-23T14:53:01;17.90;99.90
37242;DHT22;23135;51.078;12.108;2022-10-23T14:55:26;17.80;99.90
37242;DHT22;23135;51.078;12.108;2022-10-23T14:57:55;17.80;99.90
37242;DHT22;23135;51.078;12.108;2022-10-23T15:00:22;17.80;99.90
37242;DHT22;23135;51.078;12.108;2022-10-23T15:02:48;17.70;99.90
37242;DHT22;23135;51.078;12.108;2022-10-23T15:05:14;17.70;99.90
37242;DHT22;23135;51.078;12.108;2022-10-23T15:07:40;17.60;99.90
37242;DHT22;23135;51.078;12.108;2022-10-23T15:10:06;17.60;99.90
37242;DHT22;23135;51.078;12.108;2022-10-23T15:12:36;17.50;99.90
37242;DHT22;23135;51.078;12.108;2022-10-23T15:15:03;17.50;99.90
37242;DHT22;23135;51.078;12.108;2022-10-23T15:17:28;17.50;99.90
37242;DHT22;23135;51.078;12.108;2022-10-23T15:19:56;17.50;99.90
37242;DHT22;23135;51.078;12.108;2022-10-23T15:22:22;17.40;99.90
37242;DHT22;23135;51.078;12.108;2022-10-23T15:24:48;17.40;99.90
37242;DHT22;23135;51.078;12.108;2022-10-23T15:27:13;17.30;99.90
37242;DHT22;23135;51.078;12.108;2022-10-23T15:29:39;17.30;99.90
37242;DHT22;23135;51.078;12.108;2022-10-23T15:32:05;17.30;99.90
37242;DHT22;23135;51.078;12.108;2022-10-23T15:34:32;17.30;99.90
37242;DHT22;23135;51.078;12.108;2022-10-23T15:36:58;17.30;99.90
37242;DHT22;23135;51.078;12.108;2022-10-23T15:39:26;17.30;99.90
37242;DHT22;23135;51.078;12.108;2022-10-23T15:41:54;17.20;99.90
37242;DHT22;23135;51.078;12.108;2022-10-23T15:44:23;17.20;99.90
37242;DHT22;23135;51.078;12.108;2022-10-23T15:46:50;17.20;99.90
37242;DHT22;23135;51.078;12.108;2022-10-23T15:49:16;17.20;99.90
37242;DHT22;23135;51.078;12.108;2022-10-23T15:51:42;17.10;99.90
37242;DHT22;23135;51.078;12.108;2022-10-23T15:54:10;17.10;99.90
37242;DHT22;23135;51.078;12.108;2022-10-23T15:56:40;17.00;99.90
37242;DHT22;23135;51.078;12.108;2022-10-23T15:59:06;17.10;99.90
37242;DHT22;23135;51.078;12.108;2022-10-23T16:01:32;17.00;99.90
37242;DHT22;23135;51.078;12.108;2022-10-23T16:03:57;17.00;99.90
37242;DHT22;23135;51.078;12.108;2022-10-23T16:06:23;16.90;99.90
37242;DHT22;23135;51.078;12.108;2022-10-23T16:08:48;16.90;99.90
37242;DHT22;23135;51.078;12.108;2022-10-23T16:11:23;16.90;99.90
37242;DHT22;23135;51.078;12.108;2022-10-23T16:13:49;16.90;99.90
37242;DHT22;23135;51.078;12.108;2022-10-23T16:16:16;16.90;99.90
37242;DHT22;23135;51.078;12.108;2022-10-23T16:18:42;16.90;99.90
37242;DHT22;23135;51.078;12.108;2022-10-23T16:21:20;16.90;99.90
37242;DHT22;23135;51.078;12.108;2022-10-23T16:23:45;16.80;99.90
37242;DHT22;23135;51.078;12.108;2022-10-23T16:26:12;16.70;99.90
37242;DHT22;23135;51.078;12.108;2022-10-23T16:28:37;16.60;99.90
37242;DHT22;23135;51.078;12.108;2022-10-23T16:31:12;16.70;99.90
37242;DHT22;23135;51.078;12.108;2022-10-23T16:33:38;16.60;99.90
37242;DHT22;23135;51.078;12.108;2022-10-23T16:36:05;16.60;99.90
37242;DHT22;23135;51.078;12.108;2022-10-23T16:38:31;16.50;99.90
37242;DHT22;23135;51.078;12.108;2022-10-23T16:40:57;16.50;99.90
37242;DHT22;23135;51.078;12.108;2022-10-23T16:43:23;16.50;99.90
37242;DHT22;23135;51.078;12.108;2022-10-23T16:45:58;16.50;99.90
37242;DHT22;23135;51.078;12.108;2022-10-23T16:48:24;16.40;99.90
37242;DHT22;23135;51.078;12.108;2022-10-23T16:50:50;16.50;99.90